Time;durP1;ratioP1;P1;durP2;ratioP2;P2;SDS_P1;SDS_P2;PMS_P1;PMS_P2;Temp;Humidity;BMP_temperature;BMP_pressure;BME280_temperature;BME280_humidity;BME280_pressure;Samples;Min_cycle;Max_cycle;Signal;HPM_P1;HPM_P2
2023/07/28 00:02:56;;;;;;;28.58;6.40;;;25.10;92.60;;;;;;5090555;28;20047;-74
2023/07/28 00:06:00;;;;;;;16.50;6.20;;;25.10;92.70;;;;;;5090490;28;20051;-74
2023/07/28 00:09:04;;;;;;;20.02;6.25;;;25.00;92.80;;;;;;5090591;28;20392;-74
2023/07/28 00:12:08;;;;;;;23.92;6.60;;;25.00;92.80;;;;;;5090750;28;20396;-74
2023/07/28 00:15:12;;;;;;;23.60;7.18;;;25.10;92.70;;;;;;5090217;28;20044;-74
2023/07/28 00:18:15;;;;;;;19.25;8.25;;;25.10;92.60;;;;;;5090517;28;20503;-74
2023/07/28 00:21:19;;;;;;;21.00;8.32;;;25.10;92.50;;;;;;5090619;28;20043;-74
2023/07/28 00:24:23;;;;;;;23.50;7.82;;;24.90;92.60;;;;;;5090408;28;20039;-74
2023/07/28 00:27:27;;;;;;;23.17;8.23;;;24.70;93.20;;;;;;5089743;28;20039;-74
2023/07/28 00:30:31;;;;;;;21.13;8.68;;;24.70;93.00;;;;;;5090375;28;20047;-74
2023/07/28 00:33:37;;;;;;;17.05;6.25;;;24.80;93.00;;;;;;5090474;28;20039;-74
2023/07/28 00:36:42;;;;;;;18.40;6.63;;;24.80;92.70;;;;;;5089609;28;20059;-74
2023/07/28 00:39:46;;;;;;;13.38;6.53;;;24.80;92.50;;;;;;5094040;28;20047;-74
2023/07/28 00:42:50;;;;;;;22.70;5.90;;;24.80;92.50;;;;;;5094000;28;20071;-74
2023/07/28 00:45:54;;;;;;;19.38;5.80;;;24.80;92.40;;;;;;5093752;28;20597;-74
2023/07/28 00:48:58;;;;;;;19.92;6.13;;;24.80;92.20;;;;;;5093231;28;20047;-74
2023/07/28 00:52:02;;;;;;;19.83;5.68;;;24.90;92.10;;;;;;5094192;28;20287;-74
2023/07/28 00:55:07;;;;;;;20.15;5.68;;;25.00;91.90;;;;;;5094313;28;20047;-74
2023/07/28 00:58:11;;;;;;;19.65;4.95;;;25.00;91.90;;;;;;5093972;28;20402;-74
2023/07/28 01:01:15;;;;;;;16.88;5.57;;;24.80;92.00;;;;;;5094002;28;20043;-74
2023/07/28 01:04:19;;;;;;;19.02;6.10;;;24.80;92.10;;;;;;5093810;28;20039;-73
2023/07/28 01:07:30;;;;;;;21.58;6.05;;;24.70;92.20;;;;;;5092811;28;20047;-73
2023/07/28 01:10:35;;;;;;;25.63;6.07;;;24.70;92.30;;;;;;5093888;28;20050;-73
2023/07/28 01:13:38;;;;;;;19.63;6.70;;;24.60;92.50;;;;;;5093402;28;20205;-73
2023/07/28 01:16:42;;;;;;;23.08;6.70;;;24.50;92.60;;;;;;5093498;28;20055;-74
2023/07/28 01:19:46;;;;;;;17.10;6.60;;;24.50;92.40;;;;;;5093882;28;20388;-74
2023/07/28 01:23:08;;;;;;;20.17;7.35;;;24.60;92.10;;;;;;5093523;28;20043;-74
2023/07/28 01:26:16;;;;;;;18.88;7.18;;;24.50;92.20;;;;;;5092118;28;20051;-74
2023/07/28 01:29:22;;;;;;;25.45;6.88;;;24.50;92.20;;;;;;5093130;28;20435;-74
2023/07/28 01:32:25;;;;;;;21.10;6.97;;;24.50;92.20;;;;;;5092975;28;20051;-74
2023/07/28 01:35:29;;;;;;;20.92;7.57;;;24.30;92.20;;;;;;5092853;28;20043;-73
2023/07/28 01:38:33;;;;;;;18.65;7.30;;;24.10;92.50;;;;;;5093232;28;20047;-73
2023/07/28 01:41:39;;;;;;;23.85;8.88;;;24.10;92.70;;;;;;5092323;28;20043;-74
2023/07/28 01:44:43;;;;;;;15.43;7.68;;;24.00;92.40;;;;;;5092782;28;20656;-73
2023/07/28 01:47:47;;;;;;;18.80;7.65;;;24.00;92.50;;;;;;5092267;28;20043;-74
2023/07/28 01:50:50;;;;;;;26.70;7.85;;;23.90;92.70;;;;;;5092511;28;20047;-74
2023/07/28 01:53:54;;;;;;;18.35;7.38;;;23.80;92.70;;;;;;5092571;28;20523;-73
2023/07/28 01:56:58;;;;;;;18.15;7.00;;;23.80;93.00;;;;;;5092757;28;20070;-74
2023/07/28 02:00:03;;;;;;;19.00;6.50;;;23.90;93.00;;;;;;5091652;28;20411;-74
2023/07/28 02:03:17;;;;;;;24.73;6.40;;;24.00;93.00;;;;;;5092394;28;20043;-74
2023/07/28 02:06:21;;;;;;;23.00;6.60;;;24.00;93.00;;;;;;5092666;28;20047;-74
2023/07/28 02:09:25;;;;;;;19.10;6.43;;;24.20;92.60;;;;;;5091882;28;20055;-73
2023/07/28 02:12:29;;;;;;;18.10;7.30;;;24.10;92.70;;;;;;5092251;28;20080;-73
2023/07/28 02:15:33;;;;;;;19.10;7.20;;;24.10;92.90;;;;;;5091196;28;20225;-73
2023/07/28 02:18:37;;;;;;;20.98;6.80;;;24.00;93.00;;;;;;5091713;28;20055;-73
2023/07/28 02:21:41;;;;;;;29.02;7.88;;;24.00;93.10;;;;;;5092036;28;20071;-74
2023/07/28 02:24:44;;;;;;;22.25;7.32;;;24.00;93.00;;;;;;5092000;28;20617;-73
2023/07/28 02:27:48;;;;;;;22.00;7.50;;;24.00;93.10;;;;;;5092026;28;20051;-74
2023/07/28 02:30:52;;;;;;;24.40;8.02;;;24.00;93.20;;;;;;5092079;28;20463;-73
2023/07/28 02:33:56;;;;;;;22.77;6.75;;;24.00;93.00;;;;;;5092160;28;20094;-73
2023/07/28 02:37:00;;;;;;;22.02;7.40;;;24.00;93.10;;;;;;5079627;28;20047;-73
2023/07/28 02:40:05;;;;;;;15.20;7.05;;;24.00;92.90;;;;;;5092005;28;20039;-73
2023/07/28 02:43:09;;;;;;;21.48;6.85;;;24.10;92.60;;;;;;5091898;28;20043;-73
2023/07/28 02:46:13;;;;;;;17.98;5.90;;;24.00;92.80;;;;;;5091878;28;20051;-74
2023/07/28 02:49:17;;;;;;;19.13;5.75;;;24.00;92.90;;;;;;5091728;28;20597;-73
2023/07/28 02:52:21;;;;;;;18.60;6.38;;;24.00;92.90;;;;;;5090636;28;20043;-73
2023/07/28 02:55:25;;;;;;;22.67;6.45;;;23.90;92.80;;;;;;5092129;28;20043;-73
2023/07/28 02:58:29;;;;;;;18.13;5.50;;;23.80;93.00;;;;;;5091303;28;20055;-73
2023/07/28 03:01:33;;;;;;;16.90;5.90;;;23.70;93.20;;;;;;5090929;28;20051;-73
2023/07/28 03:04:37;;;;;;;24.00;6.18;;;23.60;93.50;;;;;;5091782;28;20478;-74
2023/07/28 03:08:05;;;;;;;13.95;5.45;;;23.60;93.60;;;;;;5091589;28;20098;-73
2023/07/28 03:11:09;;;;;;;17.05;5.88;;;23.80;93.40;;;;;;5091090;28;20043;-73
2023/07/28 03:14:13;;;;;;;22.67;7.20;;;23.80;93.00;;;;;;5090355;28;20043;-74
2023/07/28 03:17:17;;;;;;;21.48;5.95;;;23.80;92.80;;;;;;5091153;28;20063;-73
2023/07/28 03:20:21;;;;;;;19.42;5.63;;;23.70;93.00;;;;;;5090138;28;20423;-74
2023/07/28 03:23:25;;;;;;;20.88;6.25;;;23.60;92.90;;;;;;5091317;28;20047;-74
2023/07/28 03:26:29;;;;;;;22.60;6.25;;;23.60;93.30;;;;;;5091448;28;20511;-73
2023/07/28 03:29:33;;;;;;;29.50;6.47;;;23.40;93.50;;;;;;5090815;28;20055;-73
2023/07/28 03:32:37;;;;;;;20.35;6.07;;;23.30;94.00;;;;;;5091156;28;20047;-74
2023/07/28 03:35:41;;;;;;;28.95;6.25;;;23.30;94.10;;;;;;5091276;28;20051;-73
2023/07/28 03:38:47;;;;;;;20.23;6.93;;;23.20;94.10;;;;;;5090171;28;20412;-74
2023/07/28 03:41:52;;;;;;;21.80;6.43;;;23.20;94.40;;;;;;5090146;28;20039;-73
2023/07/28 03:44:55;;;;;;;23.95;6.53;;;23.20;94.30;;;;;;5090059;28;20511;-73
2023/07/28 03:47:59;;;;;;;21.27;7.07;;;23.20;94.20;;;;;;5090837;28;20043;-74
2023/07/28 03:51:04;;;;;;;20.50;6.60;;;22.90;94.90;;;;;;5091399;28;20051;-74
2023/07/28 03:54:08;;;;;;;21.92;6.22;;;23.00;95.30;;;;;;5090839;28;20039;-74
2023/07/28 03:57:12;;;;;;;28.40;7.25;;;23.00;95.20;;;;;;5090541;28;20098;-73
2023/07/28 04:00:16;;;;;;;17.80;6.45;;;23.10;95.00;;;;;;5089915;28;20047;-74
2023/07/28 04:03:21;;;;;;;26.00;6.38;;;23.30;94.60;;;;;;5090939;28;20051;-73
2023/07/28 04:06:41;;;;;;;18.10;5.68;;;23.30;94.40;;;;;;5090507;28;20039;-73
2023/07/28 04:09:45;;;;;;;24.58;6.85;;;23.30;94.20;;;;;;5089776;28;20043;-73
2023/07/28 04:12:49;;;;;;;22.88;6.97;;;23.30;94.20;;;;;;5093005;28;20499;-74
2023/07/28 04:15:53;;;;;;;26.67;6.35;;;23.30;94.00;;;;;;5094685;28;20067;-73
2023/07/28 04:18:57;;;;;;;22.90;6.22;;;23.40;93.70;;;;;;5093595;28;20075;-73
2023/07/28 04:22:01;;;;;;;21.27;6.00;;;23.30;93.80;;;;;;5093480;28;20048;-73
2023/07/28 04:25:07;;;;;;;14.23;6.18;;;23.30;93.70;;;;;;5093521;28;20051;-74
2023/07/28 04:28:12;;;;;;;13.07;5.20;;;23.40;93.70;;;;;;5093682;28;20043;-74
2023/07/28 04:31:15;;;;;;;14.88;5.65;;;23.60;93.20;;;;;;5093722;28;20055;-73
2023/07/28 04:34:45;;;;;;;16.27;6.20;;;23.70;93.00;;;;;;5094205;28;20387;-74
2023/07/28 04:37:51;;;;;;;23.52;5.43;;;23.80;92.80;;;;;;5092828;28;20055;-73
2023/07/28 04:41:06;;;;;;;23.52;5.65;;;24.00;92.80;;;;;;5093479;28;20062;-73
2023/07/28 04:44:30;;;;;;;14.32;5.38;;;24.50;92.40;;;;;;5093293;28;20039;-73
2023/07/28 04:47:38;;;;;;;16.08;5.35;;;24.80;91.50;;;;;;5093114;28;20403;-74
2023/07/28 04:50:45;;;;;;;28.73;5.90;;;24.80;91.50;;;;;;5094232;28;20051;-74
2023/07/28 04:54:07;;;;;;;22.05;5.63;;;25.30;91.20;;;;;;5093668;28;20043;-74
2023/07/28 04:57:12;;;;;;;24.42;6.80;;;26.10;89.60;;;;;;5092959;28;20050;-74
2023/07/28 05:00:16;;;;;;;21.90;6.13;;;26.30;89.30;;;;;;5092814;28;20039;-74
2023/07/28 05:03:20;;;;;;;25.10;6.32;;;26.50;89.20;;;;;;5093675;28;20043;-74
2023/07/28 05:06:30;;;;;;;31.17;6.93;;;26.70;89.00;;;;;;5092848;28;20035;-74
2023/07/28 05:09:34;;;;;;;57.63;8.00;;;26.80;88.30;;;;;;5092991;28;20043;-74
2023/07/28 05:12:38;;;;;;;49.97;8.23;;;26.80;88.10;;;;;;5092891;28;20039;-73
2023/07/28 05:15:42;;;;;;;45.95;8.60;;;26.60;90.00;;;;;;5092437;28;20047;-74
2023/07/28 05:18:52;;;;;;;29.27;6.68;;;27.00;87.90;;;;;;5092640;28;20051;-74
2023/07/28 05:22:19;;;;;;;33.00;6.50;;;27.00;87.40;;;;;;5080489;28;20039;-74
2023/07/28 05:25:27;;;;;;;21.52;6.25;;;26.90;88.00;;;;;;5092101;28;20407;-74
2023/07/28 05:28:35;;;;;;;28.95;6.45;;;27.10;87.30;;;;;;5093034;28;20047;-74
2023/07/28 05:31:38;;;;;;;32.95;8.35;;;26.90;87.70;;;;;;5092316;28;20039;-74
2023/07/28 05:34:50;;;;;;;27.52;6.68;;;26.90;87.90;;;;;;5092505;28;20538;-72
2023/07/28 05:37:54;;;;;;;26.38;7.00;;;26.70;88.20;;;;;;5092145;28;20511;-72
2023/07/28 05:41:03;;;;;;;38.15;7.57;;;26.50;89.00;;;;;;5092517;28;20047;-71
2023/07/28 05:44:07;;;;;;;31.92;7.53;;;26.70;89.40;;;;;;5091855;28;20051;-71
2023/07/28 05:47:12;;;;;;;24.95;7.03;;;27.00;88.70;;;;;;5091134;28;20043;-71
2023/07/28 05:50:15;;;;;;;32.17;7.78;;;27.30;87.90;;;;;;5092131;28;20035;-71
2023/07/28 05:53:22;;;;;;;29.88;7.20;;;27.40;87.60;;;;;;5091890;28;20048;-71
2023/07/28 05:56:30;;;;;;;37.97;8.05;;;27.50;87.40;;;;;;5091624;28;20055;-70
2023/07/28 05:59:34;;;;;;;31.55;7.68;;;27.70;87.00;;;;;;5092121;28;20055;-71
2023/07/28 06:02:39;;;;;;;29.40;7.57;;;27.90;86.40;;;;;;5091574;28;20039;-71
2023/07/28 06:05:43;;;;;;;46.47;8.82;;;28.00;86.80;;;;;;5091608;28;20047;-71
2023/07/28 06:08:47;;;;;;;44.83;9.10;;;28.20;86.30;;;;;;5092803;28;20483;-71
2023/07/28 06:11:51;;;;;;;32.47;7.82;;;28.00;86.60;;;;;;5091904;28;20190;-71
2023/07/28 06:14:55;;;;;;;40.15;8.77;;;28.40;85.70;;;;;;5091298;28;20055;-71
2023/07/28 06:17:59;;;;;;;37.90;8.73;;;28.70;84.60;;;;;;5091096;28;20055;-71
2023/07/28 06:21:03;;;;;;;35.17;7.72;;;28.70;84.80;;;;;;5091040;28;20313;-73
2023/07/28 06:24:07;;;;;;;38.58;6.78;;;28.80;84.60;;;;;;5091298;28;20054;-67
2023/07/28 06:27:11;;;;;;;37.38;7.97;;;28.90;85.40;;;;;;5091394;28;20067;-71
2023/07/28 06:30:16;;;;;;;38.10;8.20;;;29.20;83.90;;;;;;5091131;28;20395;-67
2023/07/28 06:33:20;;;;;;;34.40;7.70;;;29.50;83.10;;;;;;5091950;28;20035;-67
2023/07/28 06:36:25;;;;;;;27.73;7.93;;;29.60;82.30;;;;;;5091900;28;20048;-68
2023/07/28 06:39:30;;;;;;;31.33;7.68;;;29.70;82.60;;;;;;5091883;28;20051;-67
2023/07/28 06:42:35;;;;;;;31.52;7.53;;;29.70;82.80;;;;;;5079543;28;20388;-67
2023/07/28 06:45:40;;;;;;;27.52;6.22;;;29.80;82.80;;;;;;5090650;28;20051;-69
2023/07/28 06:48:45;;;;;;;38.97;8.02;;;29.90;82.80;;;;;;5079390;28;20514;-67
2023/07/28 06:51:50;;;;;;;28.52;6.40;;;29.90;82.60;;;;;;5089651;28;20043;-68
2023/07/28 06:54:56;;;;;;;27.55;6.07;;;30.00;82.40;;;;;;5089750;28;20039;-68
2023/07/28 06:58:00;;;;;;;25.08;5.25;;;29.90;82.10;;;;;;5089375;28;20051;-68
2023/07/28 07:01:03;;;;;;;20.52;5.10;;;29.90;82.90;;;;;;5089581;28;20040;-68
2023/07/28 07:04:07;;;;;;;18.80;5.60;;;30.10;81.90;;;;;;5089833;28;20047;-68
2023/07/28 07:07:11;;;;;;;30.10;6.28;;;30.20;82.00;;;;;;5089940;28;20511;-68
2023/07/28 07:10:15;;;;;;;26.23;6.28;;;30.40;81.40;;;;;;5091573;28;20046;-67
2023/07/28 07:13:20;;;;;;;23.58;5.65;;;30.30;81.60;;;;;;5090197;28;20110;-68
2023/07/28 07:16:23;;;;;;;27.55;5.85;;;30.10;81.70;;;;;;5091071;28;20297;-68
2023/07/28 07:19:29;;;;;;;28.08;5.30;;;30.40;81.50;;;;;;5091056;28;20071;-68
2023/07/28 07:22:33;;;;;;;22.15;5.80;;;31.00;80.60;;;;;;5090852;28;20407;-68
2023/07/28 07:25:37;;;;;;;17.70;5.05;;;31.60;78.80;;;;;;5090850;28;20059;-68
2023/07/28 07:28:41;;;;;;;25.23;5.13;;;31.80;77.90;;;;;;5090934;28;20050;-68
2023/07/28 07:31:45;;;;;;;13.43;4.82;;;31.80;77.50;;;;;;5090971;28;20046;-68
2023/07/28 07:34:49;;;;;;;16.73;5.50;;;31.30;78.20;;;;;;5090710;28;20510;-68
2023/07/28 07:37:53;;;;;;;22.33;5.13;;;31.20;78.80;;;;;;5090561;28;20499;-68
2023/07/28 07:40:57;;;;;;;23.58;5.25;;;31.40;78.30;;;;;;5090956;28;20063;-68
2023/07/28 07:44:01;;;;;;;29.40;6.00;;;31.60;78.10;;;;;;5090874;28;20063;-68
2023/07/28 07:47:14;;;;;;;21.17;4.70;;;31.90;77.20;;;;;;5090051;28;20146;-68
2023/07/28 07:50:17;;;;;;;27.48;5.07;;;32.20;75.60;;;;;;5090876;28;20059;-68
2023/07/28 07:53:21;;;;;;;40.88;5.55;;;32.30;76.10;;;;;;5090935;28;20668;-68
2023/07/28 07:56:25;;;;;;;33.60;5.70;;;32.30;76.30;;;;;;5089795;28;20047;-67
2023/07/28 07:59:32;;;;;;;39.13;5.28;;;32.20;76.10;;;;;;5090235;28;20043;-69
2023/07/28 08:02:36;;;;;;;17.17;3.83;;;32.60;73.80;;;;;;5090613;28;20043;-68
2023/07/28 08:05:40;;;;;;;35.58;5.63;;;34.10;71.30;;;;;;5090462;28;20051;-67
2023/07/28 08:08:44;;;;;;;34.47;5.97;;;35.10;68.90;;;;;;5090687;28;20526;-67
2023/07/28 08:11:48;;;;;;;21.52;4.10;;;35.80;67.30;;;;;;5088683;28;20075;-69
2023/07/28 08:14:53;;;;;;;17.67;3.95;;;36.10;65.10;;;;;;5088091;28;20395;-65
2023/07/28 08:17:57;;;;;;;41.35;5.55;;;36.30;62.60;;;;;;5087835;28;20389;-66
2023/07/28 08:21:01;;;;;;;27.83;4.57;;;36.30;65.00;;;;;;5088799;28;20043;-67
2023/07/28 08:24:05;;;;;;;24.83;4.18;;;36.10;64.60;;;;;;5088228;28;20051;-67
2023/07/28 08:27:09;;;;;;;92.63;9.88;;;36.30;63.80;;;;;;5088444;28;20047;-67
2023/07/28 08:30:15;;;;;;;13.10;3.80;;;36.20;61.30;;;;;;5089069;28;20048;-67
2023/07/28 08:33:19;;;;;;;40.83;4.28;;;36.30;62.80;;;;;;5089424;28;20047;-67
2023/07/28 08:36:23;;;;;;;29.98;5.22;;;36.50;62.50;;;;;;5089800;28;20043;-67
2023/07/28 08:39:26;;;;;;;41.22;4.97;;;36.80;61.90;;;;;;5089409;28;20324;-64
2023/07/28 08:42:35;;;;;;;19.58;3.63;;;36.90;62.30;;;;;;5090411;28;20043;-66
2023/07/28 08:45:39;;;;;;;60.92;6.07;;;36.80;61.30;;;;;;5089062;28;20067;-67
2023/07/28 08:48:43;;;;;;;55.53;6.93;;;36.50;62.50;;;;;;5088216;28;20043;-66
2023/07/28 08:51:51;;;;;;;25.33;4.28;;;36.80;61.60;;;;;;5089668;28;20039;-68
2023/07/28 08:54:55;;;;;;;15.15;3.03;;;36.90;60.10;;;;;;5089682;28;20073;-67
2023/07/28 08:58:16;;;;;;;25.90;4.03;;;37.10;57.70;;;;;;5089316;28;20066;-68
2023/07/28 09:01:23;;;;;;;14.30;3.50;;;37.10;56.60;;;;;;5091305;28;20043;-68
2023/07/28 09:04:27;;;;;;;19.77;3.95;;;36.80;59.60;;;;;;5092816;28;20039;-68
2023/07/28 09:07:35;;;;;;;20.80;4.10;;;36.80;60.00;;;;;;5093280;28;20047;-68
2023/07/28 09:10:48;;;;;;;50.20;5.97;;;36.80;59.90;;;;;;5093179;28;20035;-67
2023/07/28 09:13:54;;;;;;;6.88;3.00;;;36.90;59.70;;;;;;5093550;28;20047;-68
2023/07/28 09:17:13;;;;;;;9.95;3.42;;;37.30;58.10;;;;;;5093374;28;20054;-68
2023/07/28 09:20:17;;;;;;;14.48;3.35;;;37.60;58.60;;;;;;5093329;28;20106;-68
2023/07/28 09:23:30;;;;;;;14.02;3.20;;;37.80;57.50;;;;;;5093159;28;20392;-68
2023/07/28 09:26:44;;;;;;;27.98;4.70;;;38.00;56.20;;;;;;5093309;28;20079;-68
2023/07/28 09:29:52;;;;;;;17.83;3.38;;;38.00;56.40;;;;;;5093129;28;20043;-68
2023/07/28 09:32:56;;;;;;;15.18;3.00;;;37.90;55.90;;;;;;5093609;28;20039;-68
2023/07/28 09:36:16;;;;;;;11.68;2.90;;;37.80;54.80;;;;;;5093023;28;20050;-68
2023/07/28 09:39:21;;;;;;;6.38;2.58;;;37.30;55.00;;;;;;5092804;28;20071;-68
2023/07/28 09:42:26;;;;;;;10.02;3.03;;;37.30;56.20;;;;;;5093109;28;20047;-68
2023/07/28 09:45:31;;;;;;;40.85;6.65;;;37.50;56.00;;;;;;5093120;28;20051;-68
2023/07/28 09:48:38;;;;;;;15.90;3.20;;;37.80;57.20;;;;;;5092857;28;20051;-68
2023/07/28 09:51:47;;;;;;;55.80;5.45;;;37.70;57.10;;;;;;5092686;28;20043;-68
2023/07/28 09:54:55;;;;;;;23.17;3.57;;;37.60;58.40;;;;;;5092650;28;20039;-67
2023/07/28 09:58:04;;;;;;;16.98;3.33;;;37.90;58.00;;;;;;5093438;28;20046;-68
2023/07/28 10:01:09;;;;;;;33.72;4.75;;;38.00;57.60;;;;;;5092700;28;20058;-68
2023/07/28 10:04:14;;;;;;;20.55;4.53;;;38.40;57.30;;;;;;5092492;28;20035;-68
2023/07/28 10:07:19;;;;;;;16.73;3.20;;;38.40;55.90;;;;;;5092420;28;20047;-67
2023/07/28 10:10:23;;;;;;;13.52;3.33;;;38.40;56.80;;;;;;5091643;28;20058;-68
2023/07/28 10:13:28;;;;;;;13.65;3.25;;;38.40;57.50;;;;;;5092358;28;20046;-68
2023/07/28 10:16:39;;;;;;;63.10;7.90;;;38.60;58.90;;;;;;5092524;28;20055;-68
2023/07/28 10:19:43;;;;;;;13.27;3.47;;;38.60;60.00;;;;;;5092196;28;20038;-68
2023/07/28 10:22:47;;;;;;;74.75;8.43;;;38.40;57.80;;;;;;5092364;28;20067;-68
2023/07/28 10:26:01;;;;;;;42.83;6.00;;;38.50;58.10;;;;;;5091640;28;20051;-68
2023/07/28 10:29:10;;;;;;;25.70;4.60;;;38.60;59.40;;;;;;5090302;28;20054;-70
2023/07/28 10:32:27;;;;;;;8.02;2.80;;;38.40;60.20;;;;;;5089905;28;20062;-69
2023/07/28 10:35:33;;;;;;;14.82;2.85;;;38.40;59.80;;;;;;5090756;28;20059;-67
2023/07/28 10:38:38;;;;;;;13.10;3.60;;;38.10;59.60;;;;;;5090839;28;20063;-67
2023/07/28 10:42:06;;;;;;;33.17;3.92;;;37.40;60.70;;;;;;5091287;28;20051;-67
2023/07/28 10:45:11;;;;;;;38.08;4.88;;;36.50;61.90;;;;;;5091806;28;20039;-67
2023/07/28 10:48:16;;;;;;;39.80;5.32;;;36.10;62.60;;;;;;5091496;28;20047;-67
2023/07/28 10:51:26;;;;;;;46.20;5.32;;;35.80;63.80;;;;;;5091800;28;20039;-68
2023/07/28 10:54:34;;;;;;;26.65;4.45;;;35.50;64.30;;;;;;5091491;28;20050;-67
2023/07/28 10:57:38;;;;;;;27.05;4.13;;;35.20;64.40;;;;;;5090762;28;20380;-67
2023/07/28 11:00:42;;;;;;;41.08;5.45;;;35.10;65.00;;;;;;5091372;28;20059;-67
2023/07/28 11:03:46;;;;;;;15.75;3.40;;;35.10;65.00;;;;;;5091713;28;20047;-67
2023/07/28 11:06:51;;;;;;;43.67;5.25;;;34.90;65.50;;;;;;5091391;28;20043;-68
2023/07/28 11:09:55;;;;;;;26.73;3.47;;;34.90;65.50;;;;;;5091244;28;20043;-67
2023/07/28 11:13:02;;;;;;;19.23;3.67;;;34.70;65.60;;;;;;5091531;28;20050;-68
2023/07/28 11:16:08;;;;;;;23.48;3.92;;;34.60;65.20;;;;;;5091417;28;20498;-67
2023/07/28 11:19:18;;;;;;;13.30;3.08;;;34.50;65.70;;;;;;5091071;28;20051;-67
2023/07/28 11:22:22;;;;;;;46.05;6.20;;;34.40;65.20;;;;;;5090623;28;20050;-67
2023/07/28 11:25:29;;;;;;;42.88;5.25;;;34.30;65.50;;;;;;5091048;28;20055;-67
2023/07/28 11:28:34;;;;;;;14.98;3.72;;;34.30;65.70;;;;;;5090915;28;20407;-67
2023/07/28 11:31:40;;;;;;;15.73;3.35;;;34.30;65.30;;;;;;5090935;28;20067;-67
2023/07/28 11:34:45;;;;;;;10.25;2.90;;;34.30;65.40;;;;;;5091125;28;20046;-67
2023/07/28 11:37:51;;;;;;;29.45;4.95;;;34.30;66.50;;;;;;5090874;28;20050;-66
2023/07/28 11:40:56;;;;;;;29.90;4.28;;;34.20;65.80;;;;;;5091051;28;20043;-67
2023/07/28 11:44:01;;;;;;;19.30;2.92;;;34.10;65.90;;;;;;5090853;28;20418;-66
2023/07/28 11:47:06;;;;;;;22.05;3.13;;;33.90;66.30;;;;;;5090172;28;20088;-67
2023/07/28 11:50:10;;;;;;;17.65;3.17;;;33.70;65.90;;;;;;5091018;28;20043;-67
2023/07/28 11:53:14;;;;;;;20.45;4.00;;;33.50;67.00;;;;;;5090930;28;20047;-67
2023/07/28 11:56:17;;;;;;;50.70;9.07;;;33.50;66.80;;;;;;5091209;28;20043;-68
2023/07/28 11:59:22;;;;;;;12.38;2.78;;;33.40;66.90;;;;;;5091101;28;20406;-67
2023/07/28 12:02:27;;;;;;;23.50;4.03;;;33.30;67.10;;;;;;5090956;28;20409;-67
2023/07/28 12:05:33;;;;;;;17.15;3.25;;;33.30;67.20;;;;;;5090660;28;20051;-68
2023/07/28 12:08:37;;;;;;;15.32;3.30;;;33.10;65.90;;;;;;5090820;28;20399;-65
2023/07/28 12:11:44;;;;;;;26.05;3.63;;;33.80;64.90;;;;;;5090868;28;20047;-68
2023/07/28 12:14:51;;;;;;;41.47;3.65;;;33.90;64.30;;;;;;5090731;28;20043;-68
2023/07/28 12:18:05;;;;;;;12.73;2.63;;;33.70;64.30;;;;;;5090356;28;20043;-68
2023/07/28 12:21:09;;;;;;;38.30;4.55;;;33.20;65.10;;;;;;5087536;28;20053;-68
2023/07/28 12:24:13;;;;;;;18.42;3.42;;;32.90;65.20;;;;;;5088537;28;20043;-68
2023/07/28 12:27:16;;;;;;;27.75;3.35;;;32.70;66.30;;;;;;5089188;28;20043;-68
2023/07/28 12:30:20;;;;;;;40.15;4.78;;;32.60;65.10;;;;;;5090188;28;20047;-68
2023/07/28 12:33:25;;;;;;;32.45;4.20;;;32.50;66.50;;;;;;5092940;28;20395;-68
2023/07/28 12:36:29;;;;;;;49.45;6.20;;;32.40;64.80;;;;;;5094180;28;20051;-68
2023/07/28 12:39:40;;;;;;;24.98;4.20;;;32.40;66.20;;;;;;5094007;28;20051;-69
2023/07/28 12:42:44;;;;;;;13.43;2.85;;;32.20;66.80;;;;;;5094517;28;20039;-69
2023/07/28 12:45:48;;;;;;;15.80;2.88;;;32.10;65.60;;;;;;5094417;28;20510;-68
2023/07/28 12:48:52;;;;;;;31.30;4.57;;;32.00;68.30;;;;;;5094333;28;20581;-69
2023/07/28 12:52:00;;;;;;;11.38;2.88;;;31.90;69.10;;;;;;5094197;28;20042;-69
2023/07/28 12:55:05;;;;;;;61.05;5.50;;;31.80;68.80;;;;;;5093964;28;20050;-68
2023/07/28 12:58:09;;;;;;;50.03;5.43;;;31.80;70.70;;;;;;5093920;28;20058;-69
2023/07/28 13:01:13;;;;;;;39.95;3.72;;;31.60;75.70;;;;;;5094527;28;20047;-68
2023/07/28 13:04:17;;;;;;;23.52;3.58;;;31.40;75.90;;;;;;5094027;28;20395;-69
2023/07/28 13:07:21;;;;;;;42.63;4.22;;;31.20;76.30;;;;;;5093788;28;20047;-68
2023/07/28 13:10:25;;;;;;;23.52;3.13;;;31.10;76.90;;;;;;5093520;28;20043;-69
2023/07/28 13:13:30;;;;;;;29.42;3.90;;;31.10;76.70;;;;;;5093768;28;20067;-68
2023/07/28 13:16:34;;;;;;;30.77;4.65;;;31.00;77.00;;;;;;5093499;28;20043;-68
2023/07/28 13:19:38;;;;;;;45.63;5.38;;;31.10;76.00;;;;;;5093327;28;20059;-68
2023/07/28 13:22:42;;;;;;;17.63;3.47;;;31.10;75.70;;;;;;5093588;28;20043;-68
2023/07/28 13:25:46;;;;;;;21.83;3.85;;;31.20;76.00;;;;;;5093334;28;20051;-68
2023/07/28 13:28:50;;;;;;;20.00;3.55;;;31.30;75.50;;;;;;5093176;28;20050;-68
2023/07/28 13:31:58;;;;;;;18.15;3.85;;;31.40;74.60;;;;;;5093381;28;20055;-68
2023/07/28 13:35:03;;;;;;;50.38;5.25;;;31.40;74.50;;;;;;5093027;28;20051;-68
2023/07/28 13:38:07;;;;;;;17.05;2.80;;;31.40;72.90;;;;;;5092909;28;20051;-68
2023/07/28 13:41:11;;;;;;;31.27;4.50;;;31.50;69.30;;;;;;5093540;28;20408;-68
2023/07/28 13:44:15;;;;;;;25.67;3.58;;;31.50;71.10;;;;;;5092297;28;20051;-68
2023/07/28 13:47:19;;;;;;;26.25;4.47;;;31.50;72.20;;;;;;5093035;28;20523;-68
2023/07/28 13:50:24;;;;;;;14.40;3.72;;;31.40;71.90;;;;;;5092760;28;20055;-68
2023/07/28 13:53:28;;;;;;;57.40;5.90;;;31.50;71.00;;;;;;5092998;28;20051;-68
2023/07/28 13:56:32;;;;;;;24.27;3.35;;;31.50;70.40;;;;;;5092887;28;20047;-69
2023/07/28 13:59:36;;;;;;;26.25;3.72;;;31.50;71.00;;;;;;5092652;28;20055;-68
2023/07/28 14:02:40;;;;;;;45.40;4.35;;;31.50;71.20;;;;;;5093085;28;20055;-67
2023/07/28 14:05:45;;;;;;;26.67;3.55;;;31.60;69.90;;;;;;5092791;28;20051;-68
2023/07/28 14:08:48;;;;;;;23.42;3.00;;;31.60;66.70;;;;;;5091503;28;20080;-68
2023/07/28 14:11:53;;;;;;;16.55;2.28;;;31.60;63.80;;;;;;5091700;28;20043;-68
2023/07/28 14:14:57;;;;;;;76.15;6.32;;;32.60;62.00;;;;;;5091735;28;20035;-67
2023/07/28 14:18:01;;;;;;;35.90;4.30;;;33.80;61.20;;;;;;5092182;28;20403;-66
2023/07/28 14:21:05;;;;;;;10.85;2.70;;;34.90;60.40;;;;;;5092030;28;20046;-69
2023/07/28 14:24:09;;;;;;;10.63;2.42;;;34.90;59.90;;;;;;5091801;28;20047;-68
2023/07/28 14:27:13;;;;;;;14.90;3.25;;;35.10;59.50;;;;;;5092012;28;20059;-67
2023/07/28 14:30:16;;;;;;;12.45;2.85;;;35.10;60.30;;;;;;5091813;28;20047;-67
2023/07/28 14:33:20;;;;;;;13.45;2.72;;;35.10;60.30;;;;;;5091651;28;20035;-67
2023/07/28 14:36:24;;;;;;;20.70;3.60;;;34.90;59.90;;;;;;5091706;28;20070;-68
2023/07/28 14:39:28;;;;;;;18.88;4.15;;;35.30;60.50;;;;;;5091757;28;20047;-68
2023/07/28 14:42:32;;;;;;;23.70;3.30;;;35.60;59.80;;;;;;5091719;28;20051;-69
2023/07/28 14:45:36;;;;;;;35.03;4.43;;;35.50;59.90;;;;;;5091856;28;20063;-67
2023/07/28 14:48:40;;;;;;;29.73;5.07;;;35.50;59.60;;;;;;5091925;28;20047;-66
2023/07/28 14:51:44;;;;;;;13.25;3.03;;;35.60;58.90;;;;;;5091410;28;20047;-66
2023/07/28 14:54:47;;;;;;;16.83;3.05;;;35.50;59.00;;;;;;5091568;28;20035;-66
2023/07/28 14:57:52;;;;;;;10.70;2.85;;;35.60;59.90;;;;;;5091347;28;20039;-67
2023/07/28 15:00:56;;;;;;;32.22;5.07;;;35.90;60.10;;;;;;5091359;28;20046;-65
2023/07/28 15:04:02;;;;;;;12.00;2.85;;;36.20;59.80;;;;;;5091366;28;20051;-68
2023/07/28 15:07:07;;;;;;;23.42;3.05;;;35.80;59.30;;;;;;5091346;28;20043;-67
2023/07/28 15:10:11;;;;;;;50.60;5.47;;;35.70;59.80;;;;;;5091188;28;20043;-68
2023/07/28 15:13:15;;;;;;;59.72;6.78;;;36.10;60.10;;;;;;5091116;28;20047;-68
2023/07/28 15:16:19;;;;;;;38.58;4.63;;;35.80;60.40;;;;;;5091349;28;20047;-68
2023/07/28 15:19:23;;;;;;;22.27;3.58;;;35.90;60.80;;;;;;5091047;28;20126;-68
2023/07/28 15:22:27;;;;;;;40.55;4.85;;;35.70;60.90;;;;;;5091596;28;20050;-68
2023/07/28 15:25:31;;;;;;;22.30;3.08;;;35.90;60.80;;;;;;5090901;28;20403;-68
2023/07/28 15:28:35;;;;;;;56.78;7.05;;;35.80;60.80;;;;;;5091084;28;20495;-66
2023/07/28 15:31:39;;;;;;;81.78;7.55;;;35.80;61.40;;;;;;5090882;28;20063;-68
2023/07/28 15:34:43;;;;;;;18.33;3.28;;;35.40;61.90;;;;;;5091079;28;20047;-67
2023/07/28 15:37:47;;;;;;;10.93;2.67;;;35.30;62.30;;;;;;5091573;28;20067;-67
2023/07/28 15:40:56;;;;;;;38.88;7.20;;;35.20;62.80;;;;;;5091149;28;20631;-68
2023/07/28 15:44:00;;;;;;;16.35;3.03;;;35.50;62.70;;;;;;5090637;28;20047;-68
2023/07/28 15:47:04;;;;;;;27.98;3.90;;;35.40;62.30;;;;;;5090527;28;20043;-66
2023/07/28 15:50:09;;;;;;;52.20;7.50;;;35.40;62.20;;;;;;5090819;28;20046;-69
2023/07/28 15:53:13;;;;;;;25.63;3.80;;;35.20;62.40;;;;;;5090656;28;20122;-67
2023/07/28 15:56:17;;;;;;;31.95;5.05;;;35.30;62.20;;;;;;5088469;28;20074;-67